Argyle, Missouri
Current Conditions -  °F | °C
As of 1:53 PM on Friday 31 Oct 2014 (Local Time) from KVIH Reporting Station
Clear Clear  
Wind Chill: 36°   Ceiling: Unl
Heat Index: 44°   Visibility: 10mi
Dew Point: 24°   Wind: 17mph
Humidity: 45%   Direction: 330°NNW
Pressure: 30.31"   Gusts: 30mph
Location:  38.29°N, 92.03°W
Report Text: KVIH 311853Z AUTO 33015G26KT 10SM CLR 07/M04 A3031 RMK AO2 PK WND 32028/1827 SLP268 T00671044
Loading
Personal Weather Stations






























Interactive Weather Map
Tropical Storm Tracking
New forecast layout! Learn more

10-Day Weather Forecast

Advertisements
Track Severe Weather on mobile